createdAt,value
2018-05-26T00:01:09.695Z,94.60
2018-05-26T00:03:35.903Z,94.20
2018-05-26T00:06:02.151Z,94.00
2018-05-26T00:08:28.437Z,93.90
2018-05-26T00:10:55.432Z,94.50
2018-05-26T00:13:22.086Z,94.20
2018-05-26T00:15:49.086Z,94.50
2018-05-26T00:18:16.127Z,94.50
2018-05-26T00:20:43.072Z,94.50
2018-05-26T00:23:09.336Z,94.40
2018-05-26T00:25:35.592Z,94.30
2018-05-26T00:28:01.863Z,94.30
2018-05-26T00:30:28.657Z,94.30
2018-05-26T00:32:55.240Z,94.10
2018-05-26T00:35:21.519Z,94.10
2018-05-26T00:37:48.142Z,94.20
2018-05-26T00:40:14.428Z,94.00
2018-05-26T00:42:40.668Z,94.00
2018-05-26T00:45:06.917Z,94.30
2018-05-26T00:47:33.136Z,94.30
2018-05-26T00:49:59.412Z,94.40
2018-05-26T00:52:26.346Z,94.80
2018-05-26T00:54:53.346Z,94.60
2018-05-26T00:57:20.308Z,94.80
2018-05-26T00:59:47.315Z,94.70
2018-05-26T01:02:13.516Z,94.50
2018-05-26T01:04:39.766Z,94.80
2018-05-26T01:07:06.001Z,94.60
2018-05-26T01:09:32.240Z,94.60
2018-05-26T01:11:58.495Z,94.60
2018-05-26T01:14:24.746Z,94.60
2018-05-26T01:16:51.021Z,94.80
2018-05-26T01:19:17.231Z,94.60
2018-05-26T01:21:43.842Z,94.50
2018-05-26T01:24:10.066Z,94.70
2018-05-26T01:26:36.333Z,94.60
2018-05-26T01:29:02.590Z,94.80
2018-05-26T01:31:29.624Z,95.00
2018-05-26T01:33:55.871Z,94.50
2018-05-26T01:36:22.873Z,95.10
2018-05-26T01:38:49.115Z,94.90
2018-05-26T01:41:15.686Z,94.90
2018-05-26T01:43:41.952Z,94.80
2018-05-26T01:46:08.923Z,95.00
2018-05-26T01:48:35.187Z,94.80
2018-05-26T01:51:01.823Z,94.80
2018-05-26T01:53:28.058Z,94.80
2018-05-26T01:55:55.033Z,94.90
2018-05-26T01:58:21.988Z,95.20
2018-05-26T02:00:48.603Z,94.90
2018-05-26T02:03:15.640Z,95.30
2018-05-26T02:05:41.860Z,94.80
2018-05-26T02:08:08.110Z,95.10
2018-05-26T02:10:34.321Z,95.20
2018-05-26T02:13:01.308Z,95.20
2018-05-26T02:15:28.291Z,95.30
2018-05-26T02:17:56.019Z,95.40
2018-05-26T02:20:22.228Z,94.70
2018-05-26T02:22:49.196Z,95.20
2018-05-26T02:25:15.386Z,94.60
2018-05-26T02:27:41.633Z,94.80
2018-05-26T02:30:07.911Z,94.80
2018-05-26T02:32:34.172Z,95.00
2018-05-26T02:35:00.420Z,94.40
2018-05-26T02:37:26.648Z,94.60
2018-05-26T02:39:52.906Z,94.60
2018-05-26T02:42:19.127Z,94.60
2018-05-26T02:44:45.383Z,94.60
2018-05-26T02:47:11.603Z,94.70
2018-05-26T02:49:48.148Z,94.80
2018-05-26T02:52:14.380Z,95.10
2018-05-26T02:54:40.612Z,95.20
2018-05-26T02:57:06.831Z,95.00
2018-05-26T02:59:33.095Z,94.60
2018-05-26T03:01:59.312Z,94.90
2018-05-26T03:04:31.545Z,94.90
2018-05-26T03:07:04.493Z,95.40
2018-05-26T03:09:36.831Z,95.10
2018-05-26T03:12:09.237Z,95.10
2018-05-26T03:14:41.637Z,95.00
2018-05-26T03:17:07.934Z,95.10
2018-05-26T03:19:34.184Z,94.90
2018-05-26T03:22:00.463Z,95.10
2018-05-26T03:24:26.701Z,94.90
2018-05-26T03:26:53.334Z,95.00
2018-05-26T03:29:19.601Z,95.00
2018-05-26T03:31:46.214Z,94.90
2018-05-26T03:34:12.474Z,95.10
2018-05-26T03:36:39.411Z,95.20
2018-05-26T03:39:05.681Z,95.00
2018-05-26T03:41:31.936Z,94.80
2018-05-26T03:43:58.196Z,95.00
2018-05-26T03:46:24.448Z,95.30
2018-05-26T03:48:50.716Z,95.40
2018-05-26T03:51:16.986Z,95.60
2018-05-26T03:53:43.236Z,95.60
2018-05-26T03:56:21.732Z,94.50
2018-05-26T03:59:00.202Z,94.00
2018-05-26T04:01:27.221Z,94.50
2018-05-26T04:03:53.503Z,94.30
2018-05-26T04:06:19.727Z,94.20
2018-05-26T04:08:46.799Z,94.80
2018-05-26T04:11:13.022Z,94.60
2018-05-26T04:13:40.062Z,94.80
2018-05-26T04:16:07.032Z,95.30
2018-05-26T04:18:34.048Z,95.00
2018-05-26T04:21:00.387Z,95.00
2018-05-26T04:23:26.645Z,95.40
2018-05-26T04:25:53.603Z,95.40
2018-05-26T04:28:20.552Z,95.50
2018-05-26T04:30:47.518Z,95.70
2018-05-26T04:33:13.742Z,95.60
2018-05-26T04:35:40.764Z,96.00
2018-05-26T04:38:07.360Z,95.70
2018-05-26T04:40:33.603Z,96.00
2018-05-26T04:43:00.567Z,96.00
2018-05-26T04:45:26.827Z,96.00
2018-05-26T04:47:53.091Z,96.10
2018-05-26T04:50:20.078Z,96.30
2018-05-26T04:52:46.352Z,96.00
2018-05-26T04:55:12.612Z,96.00
2018-05-26T04:57:39.613Z,96.30
2018-05-26T05:00:06.237Z,96.20
2018-05-26T05:02:32.478Z,96.10
2018-05-26T05:04:58.723Z,96.00
2018-05-26T05:07:25.028Z,95.40
2018-05-26T05:09:52.022Z,95.10
2018-05-26T05:12:18.253Z,94.60
2018-05-26T05:14:44.492Z,94.20
2018-05-26T05:17:10.838Z,93.90
2018-05-26T05:19:37.822Z,93.60
2018-05-26T05:22:04.028Z,93.60
2018-05-26T05:24:30.291Z,93.70
2018-05-26T05:26:56.527Z,93.50
2018-05-26T05:29:22.807Z,93.20
2018-05-26T05:31:49.048Z,93.30
2018-05-26T05:34:15.301Z,93.00
2018-05-26T05:36:41.550Z,93.20
2018-05-26T05:39:08.529Z,93.00
2018-05-26T05:41:34.767Z,92.80
2018-05-26T05:44:03.267Z,93.10
2018-05-26T05:46:30.257Z,91.70
2018-05-26T05:48:56.482Z,91.70
2018-05-26T05:51:22.745Z,91.70
2018-05-26T05:53:48.966Z,91.90
2018-05-26T05:56:15.980Z,90.60
2018-05-26T05:58:42.912Z,90.70
2018-05-26T06:01:09.148Z,90.80
2018-05-26T06:03:35.388Z,89.10
2018-05-26T06:06:02.385Z,89.50
2018-05-26T06:08:29.342Z,84.30
2018-05-26T06:10:55.649Z,85.40
2018-05-26T06:13:22.004Z,87.10
2018-05-26T06:15:48.244Z,87.70
2018-05-26T06:18:14.534Z,82.30
2018-05-26T06:20:40.807Z,84.20
2018-05-26T06:23:07.471Z,80.20
2018-05-26T06:25:34.431Z,78.60
2018-05-26T06:28:00.788Z,79.30
2018-05-26T06:30:27.064Z,77.70
2018-05-26T06:32:53.327Z,77.90
2018-05-26T06:35:19.571Z,79.80
2018-05-26T06:37:45.874Z,73.30
2018-05-26T06:40:12.854Z,77.60
2018-05-26T06:42:39.103Z,78.10
2018-05-26T06:45:05.362Z,73.00
2018-05-26T06:47:31.632Z,72.50
2018-05-26T06:49:57.873Z,73.90
2018-05-26T06:52:24.113Z,73.90
2018-05-26T06:54:50.369Z,71.50
2018-05-26T06:57:16.573Z,72.70
2018-05-26T06:59:43.586Z,72.60
2018-05-26T07:02:09.784Z,75.90
2018-05-26T07:04:36.057Z,73.10
2018-05-26T07:07:02.284Z,74.40
2018-05-26T07:09:29.320Z,68.50
2018-05-26T07:11:55.523Z,69.40
2018-05-26T07:14:22.519Z,69.10
2018-05-26T07:16:58.585Z,70.40
2018-05-26T07:19:24.854Z,72.50
2018-05-26T07:21:51.843Z,73.90
2018-05-26T07:24:18.058Z,65.80
2018-05-26T07:26:44.345Z,64.90
2018-05-26T07:29:10.594Z,67.60
2018-05-26T07:31:36.888Z,66.70
2018-05-26T07:34:03.860Z,66.30
2018-05-26T07:36:30.848Z,64.60
2018-05-26T07:38:57.085Z,67.30
2018-05-26T07:41:24.105Z,64.70
2018-05-26T07:43:50.355Z,66.00
2018-05-26T07:46:16.614Z,64.00
2018-05-26T07:48:43.629Z,65.40
2018-05-26T07:51:09.923Z,64.00
2018-05-26T07:53:36.517Z,63.70
2018-05-26T07:56:02.797Z,64.40
2018-05-26T07:58:29.777Z,64.90
2018-05-26T08:00:56.004Z,63.00
2018-05-26T08:03:22.243Z,62.60
2018-05-26T08:05:48.496Z,63.00
2018-05-26T08:08:14.774Z,66.90
2018-05-26T08:10:41.710Z,66.30
2018-05-26T08:13:07.969Z,63.90
2018-05-26T08:15:35.004Z,64.50
2018-05-26T08:18:01.289Z,63.60
2018-05-26T08:20:27.524Z,63.10
2018-05-26T08:22:53.785Z,64.30
2018-05-26T08:25:20.004Z,67.80
2018-05-26T08:27:46.247Z,62.10
2018-05-26T08:30:12.465Z,61.90
2018-05-26T08:32:39.103Z,62.90
2018-05-26T08:35:05.339Z,62.30
2018-05-26T08:37:31.592Z,62.40
2018-05-26T08:39:57.888Z,62.60
2018-05-26T08:42:24.881Z,63.70
2018-05-26T08:44:51.866Z,66.10
2018-05-26T08:47:18.089Z,65.10
2018-05-26T08:49:44.360Z,64.40
2018-05-26T08:52:11.305Z,64.50
2018-05-26T08:54:37.565Z,63.80
2018-05-26T08:57:03.789Z,68.50
2018-05-26T08:59:30.814Z,65.20
2018-05-26T09:01:57.025Z,65.00
2018-05-26T09:04:23.324Z,61.00
2018-05-26T09:06:50.300Z,63.60
2018-05-26T09:09:16.597Z,60.60
2018-05-26T09:11:43.599Z,64.90
2018-05-26T09:14:09.849Z,61.30
2018-05-26T09:16:36.865Z,64.50
2018-05-26T09:19:03.147Z,59.40
2018-05-26T09:21:29.426Z,63.00
2018-05-26T09:23:56.395Z,60.00
2018-05-26T09:26:23.004Z,59.30
2018-05-26T09:28:50.021Z,62.90
2018-05-26T09:31:17.099Z,60.40
2018-05-26T09:33:43.319Z,60.40
2018-05-26T09:36:09.570Z,62.40
2018-05-26T09:38:36.175Z,60.50
2018-05-26T09:41:02.419Z,60.00
2018-05-26T09:43:28.669Z,63.80
2018-05-26T09:45:54.891Z,63.80
2018-05-26T09:48:21.524Z,62.70
2018-05-26T09:50:48.882Z,61.80
2018-05-26T09:53:15.120Z,62.40
2018-05-26T09:55:41.344Z,61.50
2018-05-26T09:58:07.592Z,58.90
2018-05-26T10:00:33.861Z,58.60
2018-05-26T10:03:00.159Z,62.00
2018-05-26T10:05:26.470Z,59.50
2018-05-26T10:07:52.761Z,60.10
2018-05-26T10:10:18.991Z,58.90
2018-05-26T10:12:45.236Z,57.80
2018-05-26T10:15:11.504Z,58.00
2018-05-26T10:17:38.542Z,57.80
2018-05-26T10:20:04.834Z,57.80
2018-05-26T10:22:31.866Z,58.20
2018-05-26T10:24:58.921Z,57.80
2018-05-26T10:27:25.961Z,59.20
2018-05-26T10:29:52.976Z,59.30
2018-05-26T10:32:19.215Z,56.80
2018-05-26T10:34:45.511Z,56.70
2018-05-26T10:37:11.754Z,58.40
2018-05-26T10:39:38.010Z,56.80
2018-05-26T10:42:04.295Z,55.40
2018-05-26T10:44:31.350Z,55.10
2018-05-26T10:46:58.290Z,55.20
2018-05-26T10:49:25.273Z,56.30
2018-05-26T10:51:51.542Z,51.20
2018-05-26T10:54:17.845Z,51.80
2018-05-26T10:56:44.110Z,50.90
2018-05-26T10:59:10.345Z,51.40
2018-05-26T11:01:36.605Z,50.00
2018-05-26T11:04:02.855Z,50.30
2018-05-26T11:06:42.061Z,49.90
2018-05-26T11:09:08.321Z,50.10
2018-05-26T11:11:35.395Z,52.70
2018-05-26T11:14:02.395Z,47.90
2018-05-26T11:16:28.736Z,47.50
2018-05-26T11:18:55.009Z,49.20
2018-05-26T11:21:22.037Z,48.70
2018-05-26T11:23:48.315Z,49.50
2018-05-26T11:26:15.034Z,51.90
2018-05-26T11:28:41.245Z,46.50
2018-05-26T11:31:07.491Z,46.60
2018-05-26T11:33:34.465Z,49.90
2018-05-26T11:36:01.467Z,44.70
2018-05-26T11:38:27.733Z,48.70
2018-05-26T11:40:54.002Z,46.80
2018-05-26T11:43:21.013Z,46.40
2018-05-26T11:45:47.262Z,49.80
2018-05-26T11:48:13.897Z,46.10
2018-05-26T11:50:40.157Z,48.00
2018-05-26T11:53:07.140Z,50.90
2018-05-26T11:55:33.419Z,47.00
2018-05-26T11:57:59.672Z,50.00
2018-05-26T12:00:26.678Z,48.30
2018-05-26T12:02:52.911Z,49.80
2018-05-26T12:05:19.231Z,48.40
2018-05-26T12:07:45.463Z,47.20
2018-05-26T12:10:11.749Z,47.40
2018-05-26T12:12:38.781Z,49.70
2018-05-26T12:15:05.046Z,50.50
2018-05-26T12:17:32.806Z,46.30
2018-05-26T12:19:59.040Z,45.50
2018-05-26T12:22:25.276Z,49.00
2018-05-26T12:24:52.268Z,45.70
2018-05-26T12:27:19.212Z,48.60
2018-05-26T12:29:46.212Z,46.30
2018-05-26T12:32:12.456Z,45.20
2018-05-26T12:34:38.742Z,43.10
2018-05-26T12:37:05.716Z,44.40
2018-05-26T12:39:31.955Z,42.80
2018-05-26T12:41:58.181Z,43.60
2018-05-26T12:44:24.417Z,43.50
2018-05-26T12:46:51.522Z,44.00
2018-05-26T12:49:17.757Z,44.70
2018-05-26T12:51:44.051Z,43.90
2018-05-26T12:54:10.271Z,41.00
2018-05-26T12:56:37.281Z,38.70
2018-05-26T12:59:03.530Z,40.60
2018-05-26T13:01:29.822Z,37.80
2018-05-26T13:03:57.276Z,37.30
2018-05-26T13:06:23.546Z,39.00
2018-05-26T13:08:49.862Z,38.50
2018-05-26T13:11:16.171Z,39.00
2018-05-26T13:13:42.382Z,37.00
2018-05-26T13:16:09.385Z,42.20
2018-05-26T13:18:35.605Z,36.70
2018-05-26T13:21:01.863Z,34.80
2018-05-26T13:23:28.160Z,35.20
2018-05-26T13:25:55.153Z,38.00
2018-05-26T13:28:21.420Z,36.90
2018-05-26T13:30:47.656Z,40.50
2018-05-26T13:33:13.971Z,42.00
2018-05-26T13:35:40.217Z,45.20
2018-05-26T13:38:06.834Z,45.40
2018-05-26T13:40:33.063Z,45.20
2018-05-26T13:42:59.352Z,45.10
2018-05-26T13:45:25.582Z,45.50
2018-05-26T13:47:51.880Z,46.00
2018-05-26T13:50:18.491Z,42.60
2018-05-26T13:52:45.541Z,42.30
2018-05-26T13:55:12.584Z,39.40
2018-05-26T13:57:38.781Z,39.40
2018-05-26T14:00:05.098Z,42.00
2018-05-26T14:02:31.357Z,45.70
2018-05-26T14:04:57.634Z,49.30
2018-05-26T14:07:24.650Z,49.40
2018-05-26T14:09:50.927Z,48.20
2018-05-26T14:12:17.931Z,51.20
2018-05-26T14:14:44.194Z,50.90
2018-05-26T14:17:11.251Z,48.20
2018-05-26T14:19:38.035Z,49.70
2018-05-26T14:22:04.290Z,43.90
2018-05-26T14:24:30.593Z,43.30
2018-05-26T14:26:57.616Z,44.30
2018-05-26T14:29:23.906Z,46.20
2018-05-26T14:31:50.155Z,48.40
2018-05-26T14:34:16.398Z,47.80
2018-05-26T14:36:42.630Z,49.20
2018-05-26T14:39:08.961Z,48.40
2018-05-26T14:41:35.230Z,49.80
2018-05-26T14:44:01.450Z,48.50
2018-05-26T14:46:27.737Z,47.90
2018-05-26T14:48:54.686Z,51.00
2018-05-26T14:51:21.697Z,51.20
2018-05-26T14:53:47.965Z,52.60
2018-05-26T14:56:14.967Z,55.40
2018-05-26T14:58:41.251Z,55.60
2018-05-26T15:01:08.295Z,56.90
2018-05-26T15:03:34.521Z,56.70
2018-05-26T15:06:00.821Z,58.00
2018-05-26T15:08:27.066Z,57.20
2018-05-26T15:10:53.377Z,60.20
2018-05-26T15:13:20.381Z,59.60
2018-05-26T15:15:46.702Z,60.50
2018-05-26T15:18:12.923Z,64.80
2018-05-26T15:20:39.167Z,62.10
2018-05-26T15:23:05.467Z,62.90
2018-05-26T15:25:32.085Z,64.40
2018-05-26T15:27:58.427Z,63.40
2018-05-26T15:30:24.635Z,64.70
2018-05-26T15:32:50.937Z,66.80
2018-05-26T15:35:17.933Z,66.40
2018-05-26T15:37:45.682Z,66.60
2018-05-26T15:40:11.926Z,65.20
2018-05-26T15:42:38.185Z,65.00
2018-05-26T15:45:04.481Z,66.40
2018-05-26T15:47:30.742Z,66.40
2018-05-26T15:49:57.019Z,66.10
2018-05-26T15:52:23.676Z,67.30
2018-05-26T15:54:49.908Z,67.70
2018-05-26T15:57:16.200Z,67.60
2018-05-26T15:59:42.422Z,67.30
2018-05-26T16:02:08.698Z,68.00
2018-05-26T16:04:35.697Z,68.50
2018-05-26T16:07:01.969Z,69.00
2018-05-26T16:09:28.227Z,68.10
2018-05-26T16:11:55.278Z,69.00
2018-05-26T16:14:22.248Z,68.90
2018-05-26T16:16:48.495Z,68.10
2018-05-26T16:19:14.762Z,69.20
2018-05-26T16:21:41.027Z,70.20
2018-05-26T16:24:07.288Z,71.90
2018-05-26T16:26:33.561Z,69.50
2018-05-26T16:28:59.803Z,70.20
2018-05-26T16:31:26.081Z,69.10
2018-05-26T16:33:53.080Z,71.30
2018-05-26T16:36:19.349Z,69.00
2018-05-26T16:38:45.633Z,70.40
2018-05-26T16:41:12.593Z,71.40
2018-05-26T16:43:38.881Z,71.10
2018-05-26T16:46:05.151Z,71.10
2018-05-26T16:48:31.428Z,71.70
2018-05-26T16:53:25.764Z,75.00
2018-05-26T16:55:51.987Z,74.60
2018-05-26T16:58:18.224Z,75.00
2018-05-26T17:00:44.499Z,74.90
2018-05-26T17:03:10.744Z,74.90
2018-05-26T17:05:37.052Z,74.00
2018-05-26T17:08:04.119Z,74.00
2018-05-26T17:10:31.097Z,76.80
2018-05-26T17:12:57.381Z,73.20
2018-05-26T17:15:24.412Z,73.10
2018-05-26T17:17:50.664Z,72.90
2018-05-26T17:20:16.964Z,70.90
2018-05-26T17:22:43.213Z,70.30
2018-05-26T17:25:09.571Z,68.90
2018-05-26T17:27:35.850Z,68.50
2018-05-26T17:30:02.159Z,68.50
2018-05-26T17:32:28.421Z,68.80
2018-05-26T17:34:54.686Z,69.30
2018-05-26T17:37:20.948Z,69.20
2018-05-26T17:39:47.217Z,69.80
2018-05-26T17:42:14.228Z,69.60
2018-05-26T17:44:40.886Z,70.40
2018-05-26T17:47:07.872Z,68.50
2018-05-26T17:49:34.884Z,67.40
2018-05-26T17:52:01.152Z,67.50
2018-05-26T17:54:28.252Z,69.70
2018-05-26T17:56:54.528Z,68.50
2018-05-26T17:59:20.772Z,70.60
2018-05-26T18:01:47.767Z,71.90
2018-05-26T18:04:14.033Z,68.80
2018-05-26T18:06:40.282Z,70.10
2018-05-26T18:09:06.897Z,68.80
2018-05-26T18:11:33.178Z,71.30
2018-05-26T18:13:59.792Z,71.30
2018-05-26T18:16:26.049Z,71.60
2018-05-26T18:18:52.300Z,70.80
2018-05-26T18:21:19.293Z,72.00
2018-05-26T18:23:45.538Z,72.00
2018-05-26T18:26:12.543Z,72.80
2018-05-26T18:28:39.593Z,72.10
2018-05-26T18:31:06.613Z,73.20
2018-05-26T18:33:32.948Z,71.70
2018-05-26T18:35:59.215Z,70.90
2018-05-26T18:38:25.456Z,72.50
2018-05-26T18:40:52.515Z,72.50
2018-05-26T18:43:19.527Z,72.40
2018-05-26T18:45:46.528Z,71.60
2018-05-26T18:48:13.503Z,73.00
2018-05-26T18:50:40.514Z,72.60
2018-05-26T18:53:06.795Z,73.10
2018-05-26T18:55:33.073Z,73.80
2018-05-26T18:57:59.305Z,72.90
2018-05-26T19:00:25.595Z,73.00
2018-05-26T19:02:51.832Z,73.90
2018-05-26T19:05:18.147Z,74.10
2018-05-26T19:07:45.180Z,75.20
2018-05-26T19:10:11.452Z,76.00
2018-05-26T19:12:38.122Z,77.00
2018-05-26T19:15:04.400Z,77.60
2018-05-26T19:17:30.683Z,76.00
2018-05-26T19:19:56.949Z,76.10
2018-05-26T19:22:23.903Z,77.30
2018-05-26T19:24:50.925Z,76.20
2018-05-26T19:27:17.153Z,75.60
2018-05-26T19:29:43.388Z,77.10
2018-05-26T19:32:09.657Z,79.10
2018-05-26T19:34:35.898Z,80.00
2018-05-26T19:37:02.940Z,80.70
2018-05-26T19:39:29.157Z,80.10
2018-05-26T19:41:55.437Z,80.80
2018-05-26T19:44:21.698Z,81.80
2018-05-26T19:46:48.699Z,82.90
2018-05-26T19:49:14.978Z,82.90
2018-05-26T19:51:41.977Z,82.40
2018-05-26T19:54:08.250Z,83.40
2018-05-26T19:56:34.585Z,82.10
2018-05-26T19:59:00.840Z,82.70
2018-05-26T20:01:27.819Z,83.10
2018-05-26T20:03:54.083Z,82.70
2018-05-26T20:06:20.328Z,83.40
2018-05-26T20:08:46.565Z,84.00
2018-05-26T20:11:12.807Z,84.80
2018-05-26T20:13:39.083Z,84.40
2018-05-26T20:16:06.058Z,85.20
2018-05-26T20:18:32.393Z,84.70
2018-05-26T20:20:58.655Z,84.70
2018-05-26T20:23:25.659Z,86.20
2018-05-26T20:25:52.656Z,86.40
2018-05-26T20:28:18.889Z,85.00
2018-05-26T20:30:45.166Z,84.90
2018-05-26T20:33:12.200Z,86.30
2018-05-26T20:35:38.425Z,85.60
2018-05-26T20:38:04.716Z,86.00
2018-05-26T20:40:31.005Z,86.00
2018-05-26T20:42:57.212Z,85.90
2018-05-26T20:45:23.498Z,85.60
2018-05-26T20:47:50.081Z,85.20
2018-05-26T20:50:16.334Z,85.60
2018-05-26T20:52:42.569Z,85.40
2018-05-26T20:55:08.844Z,85.70
2018-05-26T20:57:35.468Z,86.30
2018-05-26T21:00:01.745Z,85.80
2018-05-26T21:02:28.741Z,86.40
2018-05-26T21:04:54.972Z,84.20
2018-05-26T21:07:21.274Z,85.60
2018-05-26T21:09:48.229Z,84.20
2018-05-26T21:12:15.262Z,82.50
2018-05-26T21:14:41.515Z,82.30
2018-05-26T21:17:08.535Z,83.40
2018-05-26T21:19:34.741Z,83.10
2018-05-26T21:22:00.985Z,83.30
2018-05-26T21:24:27.240Z,84.30
2018-05-26T21:26:53.550Z,85.60
2018-05-26T21:29:19.820Z,85.80
2018-05-26T21:31:46.089Z,86.30
2018-05-26T21:34:12.380Z,86.80
2018-05-26T21:36:38.654Z,87.70
2018-05-26T21:39:04.971Z,88.40
2018-05-26T21:41:31.178Z,89.00
2018-05-26T21:43:57.424Z,88.90
2018-05-26T21:46:23.665Z,89.20
2018-05-26T21:48:49.940Z,87.90
2018-05-26T21:51:16.985Z,88.00
2018-05-26T21:53:44.035Z,88.40
2018-05-26T21:56:11.000Z,88.70
2018-05-26T21:58:37.263Z,88.00
2018-05-26T22:01:03.533Z,87.60
2018-05-26T22:03:29.819Z,88.10
2018-05-26T22:05:56.064Z,87.40
2018-05-26T22:08:22.294Z,86.90
2018-05-26T22:10:48.586Z,87.40
2018-05-26T22:13:15.245Z,87.40
2018-05-26T22:15:42.221Z,89.50
2018-05-26T22:18:08.478Z,88.70
2018-05-26T22:20:34.759Z,88.80
2018-05-26T22:23:00.989Z,89.00
2018-05-26T22:25:27.285Z,89.80
2018-05-26T22:27:53.520Z,90.20
2018-05-26T22:30:19.787Z,90.40
2018-05-26T22:32:46.052Z,90.60
2018-05-26T22:35:13.070Z,90.60
2018-05-26T22:37:39.313Z,90.70
2018-05-26T22:40:05.599Z,91.00
2018-05-26T22:42:31.821Z,91.10
2018-05-26T22:44:58.890Z,91.30
2018-05-26T22:47:25.114Z,90.80
2018-05-26T22:49:51.384Z,91.00
2018-05-26T22:52:17.673Z,91.00
2018-05-26T22:54:44.625Z,91.90
2018-05-26T22:57:11.611Z,92.20
2018-05-26T22:59:37.842Z,91.30
2018-05-26T23:02:04.329Z,90.60
2018-05-26T23:04:30.547Z,90.40
2018-05-26T23:06:56.869Z,90.40
2018-05-26T23:09:23.790Z,91.00
2018-05-26T23:11:50.090Z,90.70
2018-05-26T23:14:24.750Z,90.90
2018-05-26T23:16:51.783Z,91.30
2018-05-26T23:19:18.044Z,91.10
2018-05-26T23:21:44.360Z,91.30
2018-05-26T23:24:10.601Z,91.30
2018-05-26T23:26:37.642Z,91.80
2018-05-26T23:29:03.925Z,91.60
2018-05-26T23:31:30.886Z,91.60
2018-05-26T23:33:57.163Z,91.80
2018-05-26T23:36:24.864Z,92.20
2018-05-26T23:38:51.105Z,92.10
2018-05-26T23:41:17.324Z,92.10
2018-05-26T23:43:44.315Z,92.40
2018-05-26T23:46:10.540Z,92.30
2018-05-26T23:48:36.834Z,92.30
2018-05-26T23:51:03.050Z,92.20
2018-05-26T23:53:29.320Z,92.20
2018-05-26T23:55:56.357Z,92.70
2018-05-26T23:58:22.599Z,92.40
